Time;durP1;ratioP1;P1;durP2;ratioP2;P2;SDS_P1;SDS_P2;PMS_P1;PMS_P2;Temp;Humidity;BMP_temperature;BMP_pressure;BME280_temperature;BME280_humidity;BME280_pressure;Samples;Min_cycle;Max_cycle;Signal;HPM_P1;HPM_P2
2022/05/22 00:00:10;;;;;;;8.82;4.38;;;10.40;99.90;;;;;;4925116;29;20071;-80
2022/05/22 00:02:35;;;;;;;9.18;4.45;;;10.40;99.90;;;;;;4930630;29;20055;-81
2022/05/22 00:05:02;;;;;;;6.03;3.45;;;10.40;99.90;;;;;;4929701;29;20095;-81
2022/05/22 00:07:27;;;;;;;6.72;4.10;;;10.40;99.90;;;;;;4946983;28;20058;-81
2022/05/22 00:09:53;;;;;;;6.25;4.32;;;10.40;99.90;;;;;;4911974;29;20080;-81
2022/05/22 00:12:19;;;;;;;10.52;5.00;;;10.40;99.90;;;;;;4898451;29;20513;-80
2022/05/22 00:14:45;;;;;;;8.93;4.32;;;10.40;99.90;;;;;;4897731;29;21431;-81
2022/05/22 00:17:10;;;;;;;10.43;4.63;;;10.40;99.90;;;;;;4946056;28;20098;-81
2022/05/22 00:19:38;;;;;;;9.82;4.38;;;10.40;99.90;;;;;;4925323;29;20398;-82
2022/05/22 00:22:04;;;;;;;7.25;4.20;;;10.40;99.90;;;;;;4928932;29;20062;-81
2022/05/22 00:24:31;;;;;;;6.78;4.00;;;10.40;99.90;;;;;;4945028;28;20082;-81
2022/05/22 00:26:58;;;;;;;7.95;4.13;;;10.40;99.90;;;;;;4909099;29;20752;-81
2022/05/22 00:29:24;;;;;;;11.20;5.88;;;10.40;99.90;;;;;;4944935;28;20111;-84
2022/05/22 00:31:50;;;;;;;10.52;5.22;;;10.40;99.90;;;;;;4945166;28;20048;-81
2022/05/22 00:34:16;;;;;;;9.88;4.80;;;10.70;99.90;;;;;;4927337;29;20044;-81
2022/05/22 00:36:42;;;;;;;7.68;4.15;;;10.40;99.90;;;;;;4944473;28;20443;-79
2022/05/22 00:39:09;;;;;;;7.30;3.50;;;10.40;99.90;;;;;;4934265;29;20145;-81
2022/05/22 00:41:35;;;;;;;5.38;3.42;;;10.40;99.90;;;;;;4926497;29;20051;-81
2022/05/22 00:44:03;;;;;;;8.40;3.75;;;10.30;99.90;;;;;;4923755;29;20521;-81
2022/05/22 00:46:33;;;;;;;8.05;4.10;;;10.30;99.90;;;;;;4911757;29;20143;-81
2022/05/22 00:49:27;;;;;;;6.65;4.05;;;10.20;99.90;;;;;;4929330;28;20505;-81
2022/05/22 00:52:01;;;;;;;8.38;4.55;;;10.20;99.90;;;;;;4945426;28;20058;-81
2022/05/22 00:54:36;;;;;;;6.50;4.03;;;10.20;99.90;;;;;;4921170;29;20040;-80
2022/05/22 00:57:06;;;;;;;9.52;4.60;;;10.10;99.90;;;;;;4923752;29;20047;-81
2022/05/22 00:59:46;;;;;;;5.32;3.53;;;10.20;99.90;;;;;;4944652;28;20050;-81
2022/05/22 01:02:15;;;;;;;6.68;3.92;;;10.10;99.90;;;;;;4924720;29;20192;-81
2022/05/22 01:04:41;;;;;;;8.82;4.35;;;10.10;99.90;;;;;;4925466;29;20098;-81
2022/05/22 01:07:08;;;;;;;7.90;4.32;;;10.10;99.90;;;;;;4897101;29;20039;-82
2022/05/22 01:09:34;;;;;;;8.55;3.83;;;10.00;99.90;;;;;;4944795;28;20102;-80
2022/05/22 01:12:08;;;;;;;6.85;3.95;;;10.10;99.90;;;;;;4923846;29;20403;-80
2022/05/22 01:14:35;;;;;;;9.05;4.28;;;10.00;99.90;;;;;;4930015;29;20035;-80
2022/05/22 01:17:07;;;;;;;7.15;4.00;;;10.00;99.90;;;;;;4943779;29;20452;-80
2022/05/22 01:19:33;;;;;;;7.57;4.60;;;10.00;99.90;;;;;;4928554;29;20134;-81
2022/05/22 01:22:15;;;;;;;6.85;4.00;;;10.00;99.90;;;;;;4928643;29;20154;-80
2022/05/22 01:24:41;;;;;;;7.15;4.10;;;10.10;99.90;;;;;;4942564;28;20106;-81
2022/05/22 01:27:11;;;;;;;6.47;3.70;;;10.10;99.90;;;;;;4927763;29;20493;-81
2022/05/22 01:29:36;;;;;;;10.98;4.20;;;10.00;99.90;;;;;;4943676;28;20133;-80
2022/05/22 01:32:04;;;;;;;9.63;3.53;;;10.00;99.90;;;;;;4913078;29;20079;-81
2022/05/22 01:34:29;;;;;;;7.07;3.50;;;10.00;99.90;;;;;;4943558;28;20639;-81
2022/05/22 01:36:55;;;;;;;7.32;3.30;;;10.00;99.90;;;;;;4926763;29;20051;-81
2022/05/22 01:39:21;;;;;;;5.97;2.78;;;10.00;99.90;;;;;;4932893;29;20611;-81
2022/05/22 01:41:47;;;;;;;3.50;1.92;;;10.00;99.90;;;;;;4896860;29;20044;-81
2022/05/22 01:44:12;;;;;;;6.45;2.60;;;10.00;99.90;;;;;;4942551;29;20068;-81
2022/05/22 01:46:38;;;;;;;5.10;2.58;;;9.90;99.90;;;;;;4923977;29;20465;-81
2022/05/22 01:49:04;;;;;;;4.43;2.20;;;9.90;99.90;;;;;;4925930;29;20126;-81
2022/05/22 01:51:36;;;;;;;4.82;2.90;;;9.90;99.90;;;;;;4929470;29;20043;-81
2022/05/22 01:54:01;;;;;;;4.95;2.50;;;9.90;99.90;;;;;;4927369;29;20067;-80
2022/05/22 01:56:29;;;;;;;5.50;2.90;;;9.90;99.90;;;;;;4946126;28;20401;-81
2022/05/22 01:58:54;;;;;;;6.05;3.05;;;9.80;99.90;;;;;;4911675;29;20039;-79
2022/05/22 02:01:20;;;;;;;7.55;3.42;;;9.80;99.90;;;;;;4905959;29;20055;-80
2022/05/22 02:03:45;;;;;;;4.55;2.60;;;9.80;99.90;;;;;;4926293;29;20057;-80
2022/05/22 02:06:11;;;;;;;4.65;2.53;;;9.70;99.90;;;;;;4928101;29;20509;-81
2022/05/22 02:08:38;;;;;;;4.10;2.90;;;9.70;99.90;;;;;;4912616;29;20393;-81
2022/05/22 02:11:06;;;;;;;4.70;2.60;;;9.60;99.90;;;;;;4942370;29;20813;-81
2022/05/22 02:13:43;;;;;;;5.18;2.60;;;9.50;99.90;;;;;;4928254;29;20054;-81
2022/05/22 02:16:09;;;;;;;3.97;2.70;;;9.50;99.90;;;;;;4923055;29;20090;-81
2022/05/22 02:18:34;;;;;;;4.95;2.63;;;9.50;99.90;;;;;;4927320;29;20090;-81
2022/05/22 02:21:01;;;;;;;4.95;2.53;;;9.40;99.90;;;;;;4923043;29;20605;-79
2022/05/22 02:23:26;;;;;;;7.78;3.17;;;9.40;99.90;;;;;;4928456;29;20063;-81
2022/05/22 02:25:54;;;;;;;4.30;2.35;;;9.30;99.90;;;;;;4934816;29;20386;-81
2022/05/22 02:28:21;;;;;;;4.47;2.85;;;9.30;99.90;;;;;;4926516;29;20044;-81
2022/05/22 02:30:54;;;;;;;4.22;2.75;;;9.20;99.90;;;;;;4912821;29;20047;-81
2022/05/22 02:33:20;;;;;;;5.53;3.08;;;9.20;99.90;;;;;;4906109;29;20047;-81
2022/05/22 02:35:46;;;;;;;5.55;2.83;;;9.20;99.90;;;;;;4933391;29;20134;-82
2022/05/22 02:38:11;;;;;;;5.93;2.55;;;9.20;99.90;;;;;;4911765;29;20043;-80
2022/05/22 02:40:38;;;;;;;5.43;2.97;;;9.20;99.90;;;;;;4925741;29;20505;-81
2022/05/22 02:43:05;;;;;;;4.57;3.28;;;9.10;99.90;;;;;;4921709;29;20500;-81
2022/05/22 02:45:33;;;;;;;6.45;3.15;;;9.10;99.90;;;;;;4920740;29;20197;-81
2022/05/22 02:47:59;;;;;;;6.35;3.70;;;9.10;99.90;;;;;;4926526;29;20119;-81
2022/05/22 02:50:27;;;;;;;6.88;3.15;;;9.10;99.90;;;;;;4926446;29;20489;-81
2022/05/22 02:52:53;;;;;;;5.72;3.17;;;9.20;99.90;;;;;;4923117;29;20165;-81
2022/05/22 02:55:20;;;;;;;7.53;3.75;;;9.20;99.90;;;;;;4933274;28;20050;-81
2022/05/22 02:57:46;;;;;;;6.80;3.65;;;9.20;99.90;;;;;;4942415;28;20126;-81
2022/05/22 03:00:18;;;;;;;5.32;2.95;;;9.20;99.90;;;;;;4940332;28;20051;-80
2022/05/22 03:02:44;;;;;;;8.90;4.30;;;9.20;99.90;;;;;;4927775;29;20154;-80
2022/05/22 03:05:10;;;;;;;6.55;3.70;;;9.20;99.90;;;;;;4923342;29;20624;-81
2022/05/22 03:07:37;;;;;;;5.10;3.00;;;9.20;99.90;;;;;;4926082;29;20055;-80
2022/05/22 03:10:05;;;;;;;4.63;3.10;;;9.20;99.90;;;;;;4910567;29;20091;-81
2022/05/22 03:12:31;;;;;;;6.43;2.83;;;9.20;99.90;;;;;;4910939;29;20162;-81
2022/05/22 03:14:58;;;;;;;5.55;2.95;;;9.20;99.90;;;;;;4926374;28;20042;-79
2022/05/22 03:17:24;;;;;;;4.80;3.05;;;9.20;99.90;;;;;;4926131;29;20040;-80
2022/05/22 03:19:51;;;;;;;7.03;2.90;;;9.20;99.90;;;;;;4910688;29;20047;-81
2022/05/22 03:22:17;;;;;;;6.30;3.00;;;9.10;99.90;;;;;;4944252;28;20055;-81
2022/05/22 03:24:43;;;;;;;7.45;3.22;;;9.10;99.90;;;;;;4929634;29;20470;-81
2022/05/22 03:27:11;;;;;;;4.55;2.95;;;9.10;99.90;;;;;;4910936;29;20079;-80
2022/05/22 03:29:38;;;;;;;6.25;3.13;;;9.10;99.90;;;;;;4928390;29;20071;-81
2022/05/22 03:32:04;;;;;;;4.20;3.20;;;9.10;99.90;;;;;;4925303;29;20096;-80
2022/05/22 03:34:31;;;;;;;8.35;3.40;;;9.10;99.90;;;;;;4946374;28;20047;-81
2022/05/22 03:36:57;;;;;;;6.57;3.10;;;9.10;99.90;;;;;;4910600;29;20191;-80
2022/05/22 03:39:23;;;;;;;5.47;3.22;;;9.10;99.90;;;;;;4898337;29;20142;-81
2022/05/22 03:41:49;;;;;;;4.65;3.00;;;9.10;99.90;;;;;;4937192;28;20095;-81
2022/05/22 03:44:15;;;;;;;4.90;3.60;;;9.10;99.90;;;;;;4912349;29;20130;-81
2022/05/22 03:46:41;;;;;;;5.78;3.45;;;9.10;99.90;;;;;;4929559;29;20470;-81
2022/05/22 03:49:07;;;;;;;6.43;4.00;;;9.10;99.90;;;;;;4914641;29;20098;-81
2022/05/22 03:51:34;;;;;;;8.27;3.90;;;9.10;99.90;;;;;;4891932;29;20110;-81
2022/05/22 03:54:00;;;;;;;8.32;3.40;;;9.20;99.90;;;;;;4923433;29;20469;-80
2022/05/22 03:56:26;;;;;;;7.82;3.47;;;9.20;99.90;;;;;;4930464;29;20102;-80
2022/05/22 03:58:52;;;;;;;4.40;2.47;;;9.30;99.90;;;;;;4909858;29;20052;-81
2022/05/22 04:01:18;;;;;;;3.22;2.30;;;9.80;99.90;;;;;;4928495;29;20788;-81
2022/05/22 04:03:43;;;;;;;2.50;2.10;;;9.20;99.90;;;;;;4927393;29;20044;-80
2022/05/22 04:06:10;;;;;;;4.75;1.85;;;9.20;99.90;;;;;;4898745;29;20054;-81
2022/05/22 04:08:36;;;;;;;3.45;1.80;;;9.20;99.90;;;;;;4925621;29;20090;-81
2022/05/22 04:11:07;;;;;;;2.95;1.80;;;9.10;99.90;;;;;;4928950;29;20047;-80
2022/05/22 04:13:33;;;;;;;4.35;2.50;;;9.20;99.90;;;;;;4945679;28;20056;-80
2022/05/22 04:15:59;;;;;;;2.13;1.55;;;9.10;99.90;;;;;;4945244;29;20378;-81
2022/05/22 04:18:25;;;;;;;3.95;1.90;;;9.10;99.90;;;;;;4908883;29;20082;-81
2022/05/22 04:20:51;;;;;;;3.05;2.10;;;9.10;99.90;;;;;;4944335;29;20497;-82
2022/05/22 04:26:01;;;;;;;3.88;2.30;;;9.10;99.90;;;;;;4924027;29;20493;-80
2022/05/22 04:28:29;;;;;;;4.65;2.40;;;9.10;99.90;;;;;;4935989;29;20048;-80
2022/05/22 04:30:55;;;;;;;4.68;2.50;;;9.10;99.90;;;;;;4929036;29;20056;-82
2022/05/22 04:33:21;;;;;;;4.18;2.58;;;9.10;99.90;;;;;;4934237;28;20094;-81
2022/05/22 04:35:47;;;;;;;4.20;2.22;;;9.10;99.90;;;;;;4928113;29;20079;-81
2022/05/22 04:38:13;;;;;;;3.50;2.70;;;9.10;99.90;;;;;;4906530;29;20507;-80
2022/05/22 04:40:41;;;;;;;3.97;2.63;;;9.10;99.90;;;;;;4929694;29;20047;-80
2022/05/22 04:43:09;;;;;;;3.83;2.45;;;9.10;99.90;;;;;;4924986;29;20489;-81
2022/05/22 04:45:39;;;;;;;5.85;3.33;;;9.30;99.90;;;;;;4912356;29;20562;-80
2022/05/22 04:48:05;;;;;;;5.75;2.92;;;9.10;99.90;;;;;;4945024;28;20064;-80
2022/05/22 04:50:32;;;;;;;5.03;2.80;;;9.10;99.90;;;;;;4913739;29;20047;-81
2022/05/22 04:52:57;;;;;;;4.00;3.00;;;9.20;99.90;;;;;;4929376;29;20048;-80
2022/05/22 04:55:23;;;;;;;4.82;2.83;;;9.20;99.90;;;;;;4924232;29;20178;-80
2022/05/22 04:57:49;;;;;;;6.30;2.78;;;9.30;99.90;;;;;;4913467;29;20489;-80
2022/05/22 05:00:15;;;;;;;7.00;3.30;;;9.30;99.90;;;;;;4935103;28;20043;-80
2022/05/22 05:02:41;;;;;;;5.68;3.03;;;9.40;99.90;;;;;;4928783;29;20146;-80
2022/05/22 05:05:10;;;;;;;4.55;3.13;;;9.50;99.90;;;;;;4898315;29;20150;-79
2022/05/22 05:07:42;;;;;;;4.47;2.85;;;9.50;99.90;;;;;;4944145;28;20051;-82
2022/05/22 05:10:12;;;;;;;7.70;3.35;;;9.70;99.90;;;;;;4927164;29;20567;-82
2022/05/22 05:12:40;;;;;;;5.40;2.80;;;9.60;99.90;;;;;;4908802;29;20048;-81
2022/05/22 05:15:10;;;;;;;5.43;2.55;;;9.80;99.90;;;;;;4923586;29;20170;-80
2022/05/22 05:17:36;;;;;;;5.68;3.08;;;9.80;99.90;;;;;;4928864;29;20052;-81
2022/05/22 05:20:03;;;;;;;5.35;2.95;;;9.90;99.90;;;;;;4914792;29;20054;-81
2022/05/22 05:22:32;;;;;;;7.05;3.60;;;10.00;99.90;;;;;;4896336;29;20498;-81
2022/05/22 05:24:58;;;;;;;7.45;3.38;;;10.10;99.90;;;;;;4928822;29;20508;-81
2022/05/22 05:27:24;;;;;;;6.90;3.20;;;10.20;99.90;;;;;;4935299;28;20445;-82
2022/05/22 05:29:49;;;;;;;6.07;3.13;;;10.30;99.90;;;;;;4923998;29;20056;-81
2022/05/22 05:32:19;;;;;;;5.85;3.08;;;10.40;99.90;;;;;;4896166;29;20532;-80
2022/05/22 05:34:45;;;;;;;5.00;2.78;;;10.60;99.90;;;;;;4911307;29;20035;-81
2022/05/22 05:37:10;;;;;;;9.35;2.92;;;10.70;99.90;;;;;;4896408;29;20524;-79
2022/05/22 05:39:36;;;;;;;6.25;3.55;;;10.80;99.90;;;;;;4929135;29;20445;-79
2022/05/22 05:42:02;;;;;;;6.55;3.20;;;10.90;99.90;;;;;;4929897;29;20082;-79
2022/05/22 05:44:28;;;;;;;7.55;3.72;;;11.10;99.90;;;;;;4943116;28;20075;-79
2022/05/22 05:46:54;;;;;;;8.10;3.55;;;11.20;99.90;;;;;;4928778;29;20508;-78
2022/05/22 05:49:20;;;;;;;8.52;3.47;;;11.40;99.90;;;;;;4943908;29;20592;-79
2022/05/22 05:51:45;;;;;;;7.82;3.55;;;11.50;99.90;;;;;;4926235;29;20035;-79
2022/05/22 05:54:11;;;;;;;8.63;4.03;;;11.70;99.90;;;;;;4944236;29;20726;-80
2022/05/22 05:56:41;;;;;;;7.22;2.97;;;11.80;99.90;;;;;;4935792;29;20125;-82
2022/05/22 05:59:07;;;;;;;9.05;3.45;;;12.00;99.90;;;;;;4924283;29;20106;-82
2022/05/22 06:01:34;;;;;;;8.38;3.35;;;12.20;99.90;;;;;;4927720;29;20048;-83
2022/05/22 06:04:01;;;;;;;7.22;3.30;;;12.30;99.90;;;;;;4942197;28;20066;-82
2022/05/22 06:06:27;;;;;;;6.10;3.25;;;12.50;99.90;;;;;;4910383;29;20064;-82
2022/05/22 06:08:53;;;;;;;7.65;2.80;;;12.70;99.90;;;;;;4909216;29;20374;-82
2022/05/22 06:11:19;;;;;;;5.60;2.53;;;12.80;99.90;;;;;;4926389;29;20130;-83
2022/05/22 06:13:45;;;;;;;7.10;2.78;;;12.90;99.90;;;;;;4928085;29;20102;-81
2022/05/22 06:16:11;;;;;;;9.02;2.75;;;13.10;99.90;;;;;;4909236;29;20118;-83
2022/05/22 06:18:37;;;;;;;7.18;2.88;;;13.30;99.90;;;;;;4922979;29;20044;-84
2022/05/22 06:21:11;;;;;;;6.90;2.25;;;13.40;99.90;;;;;;4919186;29;20047;-84
2022/05/22 06:23:38;;;;;;;7.05;2.20;;;13.60;99.90;;;;;;4897146;29;20599;-84
2022/05/22 06:26:06;;;;;;;6.93;2.25;;;13.70;99.90;;;;;;4927764;29;20056;-83
2022/05/22 06:28:31;;;;;;;6.10;1.83;;;13.90;99.90;;;;;;4929387;29;20128;-85
2022/05/22 06:30:57;;;;;;;6.70;1.80;;;14.10;99.90;;;;;;4909533;29;20493;-84
2022/05/22 06:33:23;;;;;;;5.43;1.88;;;14.20;99.90;;;;;;4911320;29;20043;-85
2022/05/22 06:35:49;;;;;;;7.45;1.88;;;14.40;99.90;;;;;;4928378;29;20047;-85
2022/05/22 06:41:06;;;;;;;7.65;2.33;;;14.70;99.90;;;;;;4924453;29;20047;-85
2022/05/22 06:43:32;;;;;;;5.13;2.35;;;14.90;99.90;;;;;;4894431;29;20312;-82
2022/05/22 06:45:58;;;;;;;5.78;2.38;;;15.10;99.90;;;;;;4924894;29;20047;-88
2022/05/22 06:48:23;;;;;;;5.20;2.03;;;15.20;99.90;;;;;;4894789;29;20106;-84
2022/05/22 06:50:50;;;;;;;7.18;1.90;;;15.30;99.90;;;;;;4911383;29;20055;-85
2022/05/22 06:53:15;;;;;;;7.20;2.10;;;15.50;99.90;;;;;;4911283;29;20122;-84
2022/05/22 06:55:41;;;;;;;6.03;1.90;;;15.60;99.90;;;;;;4937518;29;20131;-83
2022/05/22 06:58:08;;;;;;;8.73;2.00;;;15.80;99.90;;;;;;4912514;29;20147;-84
2022/05/22 07:00:33;;;;;;;6.10;1.70;;;15.90;99.90;;;;;;4911180;29;20472;-84
2022/05/22 07:03:03;;;;;;;7.03;2.15;;;16.00;99.90;;;;;;4881052;29;20497;-84
2022/05/22 07:05:28;;;;;;;6.03;1.80;;;16.10;99.90;;;;;;4926975;29;20051;-85
2022/05/22 07:07:54;;;;;;;5.18;1.88;;;16.20;99.90;;;;;;4908160;29;20099;-85
2022/05/22 07:11:38;;;;;;;6.75;2.22;;;16.30;99.90;;;;;;4924613;28;20486;-85
2022/05/22 07:13:06;;;;;;;7.28;1.98;;;16.50;99.90;;;;;;4926729;29;20054;-84
2022/05/22 07:15:31;;;;;;;5.20;1.95;;;16.60;99.90;;;;;;4927773;29;20039;-85
2022/05/22 07:17:57;;;;;;;5.00;1.63;;;16.70;99.90;;;;;;4895789;29;20130;-86
2022/05/22 07:20:23;;;;;;;5.45;2.08;;;16.80;99.90;;;;;;4895652;29;20052;-87
2022/05/22 07:22:49;;;;;;;7.38;2.08;;;16.90;99.90;;;;;;4897048;29;20141;-88
2022/05/22 07:25:15;;;;;;;7.50;2.08;;;17.00;99.90;;;;;;4897692;29;20048;-86
2022/05/22 07:27:51;;;;;;;6.07;2.00;;;17.10;99.90;;;;;;4897481;29;20052;-87
2022/05/22 07:30:21;;;;;;;5.47;1.70;;;17.30;99.90;;;;;;4942905;29;20051;-89
2022/05/22 07:32:47;;;;;;;5.85;1.60;;;17.30;99.90;;;;;;4907807;29;20528;-87
2022/05/22 07:35:15;;;;;;;5.70;1.80;;;17.50;99.90;;;;;;4926984;29;20065;-87
2022/05/22 07:37:41;;;;;;;6.50;1.60;;;17.50;99.90;;;;;;4895578;29;20146;-88
2022/05/22 07:40:07;;;;;;;3.08;1.25;;;17.60;99.90;;;;;;4928766;29;20099;-87
2022/05/22 07:42:33;;;;;;;5.63;1.77;;;17.80;99.90;;;;;;4912334;29;20056;-87
2022/05/22 07:44:59;;;;;;;3.72;1.20;;;17.90;99.90;;;;;;4922820;29;20079;-87
2022/05/22 07:48:06;;;;;;;3.65;1.30;;;18.00;99.90;;;;;;4929881;29;20153;-92
2022/05/22 07:50:31;;;;;;;;;;;18.10;99.90;;;;;;4914684;29;20055;-86
2022/05/22 07:52:57;;;;;;;3.08;1.30;;;18.00;99.90;;;;;;4922689;29;19923;-89
2022/05/22 07:55:23;;;;;;;6.57;1.98;;;18.30;99.90;;;;;;4935892;28;20051;-86
2022/05/22 07:57:49;;;;;;;6.28;1.67;;;18.50;99.90;;;;;;4927838;29;20166;-87
2022/05/22 08:00:18;;;;;;;4.72;1.40;;;18.60;99.90;;;;;;4912525;29;20449;-87
2022/05/22 08:02:44;;;;;;;5.32;1.52;;;18.80;99.90;;;;;;4937373;28;20568;-87
2022/05/22 08:05:12;;;;;;;4.07;1.67;;;18.90;99.90;;;;;;4912114;29;20047;-87
2022/05/22 08:07:38;;;;;;;6.85;1.75;;;19.00;99.90;;;;;;4927706;29;20056;-88
2022/05/22 08:10:07;;;;;;;6.50;1.90;;;19.20;99.90;;;;;;4947111;29;20044;-85
2022/05/22 08:12:38;;;;;;;5.40;1.88;;;19.30;99.90;;;;;;4930911;29;20044;-87
2022/05/22 08:15:04;;;;;;;5.25;1.42;;;19.40;99.90;;;;;;4914868;29;20044;-86
2022/05/22 08:17:35;;;;;;;5.93;1.90;;;19.50;99.90;;;;;;4898644;29;20039;-88
2022/05/22 08:20:03;;;;;;;5.50;1.98;;;19.50;99.90;;;;;;4947630;29;20508;-86
2022/05/22 08:22:29;;;;;;;4.43;1.70;;;19.50;99.90;;;;;;4899275;29;20043;-84
2022/05/22 08:24:55;;;;;;;5.05;1.73;;;19.60;99.90;;;;;;4925658;29;20371;-86
2022/05/22 08:27:21;;;;;;;7.60;1.77;;;19.60;99.90;;;;;;4930343;29;20051;-86
2022/05/22 08:29:46;;;;;;;3.15;1.60;;;19.80;99.90;;;;;;4931074;29;20083;-89
2022/05/22 08:32:12;;;;;;;5.75;1.42;;;19.90;99.90;;;;;;4931569;29;20103;-88
2022/05/22 08:34:38;;;;;;;5.72;1.77;;;20.00;99.90;;;;;;4946219;28;20050;-89
2022/05/22 08:37:04;;;;;;;4.80;1.70;;;20.00;99.90;;;;;;4932139;29;20051;-89
2022/05/22 08:39:31;;;;;;;5.70;2.00;;;20.10;99.90;;;;;;4955965;29;20047;-88
2022/05/22 08:41:58;;;;;;;4.25;1.60;;;20.10;99.90;;;;;;4923590;29;20055;-88
2022/05/22 08:44:32;;;;;;;5.55;1.77;;;20.10;99.90;;;;;;4932682;29;20082;-85
2022/05/22 08:47:11;;;;;;;4.35;1.70;;;20.20;99.90;;;;;;4938318;28;20074;-87
2022/05/22 08:50:06;;;;;;;6.55;2.05;;;20.40;99.90;;;;;;4931111;29;20451;-89
2022/05/22 08:52:44;;;;;;;7.05;1.90;;;20.40;99.90;;;;;;4931902;29;20441;-88
2022/05/22 08:55:16;;;;;;;4.85;1.63;;;20.60;99.90;;;;;;4930685;29;20140;-89
2022/05/22 09:01:19;;;;;;;4.78;1.88;;;20.80;99.90;;;;;;4930320;29;20064;-87
2022/05/22 09:04:05;;;;;;;6.38;1.70;;;21.00;99.90;;;;;;4943567;28;20055;-85
2022/05/22 09:06:36;;;;;;;6.57;1.67;;;21.20;99.90;;;;;;4929317;29;20058;-85
2022/05/22 09:09:04;;;;;;;5.43;1.80;;;21.40;99.90;;;;;;4929093;29;20051;-85
2022/05/22 09:11:29;;;;;;;6.30;1.80;;;21.60;99.90;;;;;;4920531;29;20401;-86
2022/05/22 09:14:09;;;;;;;4.68;1.70;;;21.80;99.90;;;;;;4930840;29;20102;-83
2022/05/22 09:16:55;;;;;;;5.22;1.73;;;21.80;99.90;;;;;;4930113;29;20122;-85
2022/05/22 09:19:37;;;;;;;5.15;1.50;;;21.80;99.90;;;;;;4945653;28;20078;-86
2022/05/22 09:22:05;;;;;;;4.38;1.38;;;22.00;99.90;;;;;;4930995;29;20047;-85
2022/05/22 09:24:58;;;;;;;5.85;1.75;;;22.10;99.90;;;;;;4945833;28;20130;-86
2022/05/22 09:27:45;;;;;;;5.32;1.50;;;22.10;99.90;;;;;;4913070;29;20052;-84
2022/05/22 09:30:39;;;;;;;4.55;1.63;;;22.20;99.90;;;;;;4930253;29;20047;-86
2022/05/22 09:33:23;;;;;;;6.28;2.00;;;22.10;99.90;;;;;;4914892;29;20063;-86
2022/05/22 09:36:03;;;;;;;3.25;1.50;;;22.20;99.90;;;;;;4929759;29;20044;-86
2022/05/22 09:38:41;;;;;;;4.78;1.50;;;22.20;99.90;;;;;;4913243;29;20084;-85
2022/05/22 09:41:35;;;;;;;7.22;1.60;;;22.50;99.90;;;;;;4928566;29;20121;-86
2022/05/22 09:44:31;;;;;;;5.55;1.67;;;22.70;99.90;;;;;;4929262;29;20056;-86
2022/05/22 09:47:20;;;;;;;4.83;2.00;;;22.60;99.90;;;;;;4929169;29;20076;-85
2022/05/22 09:50:04;;;;;;;7.53;2.75;;;22.50;99.90;;;;;;4902766;29;20051;-86
2022/05/22 09:52:46;;;;;;;5.80;2.03;;;22.50;99.90;;;;;;4930020;29;20048;-83
2022/05/22 09:55:36;;;;;;;5.18;2.05;;;22.40;99.90;;;;;;4931271;29;20049;-85
2022/05/22 09:58:27;;;;;;;4.43;1.73;;;22.60;99.90;;;;;;4923187;29;20044;-87
2022/05/22 10:01:10;;;;;;;5.45;2.50;;;22.60;99.90;;;;;;4943873;29;20134;-86
2022/05/22 10:04:14;;;;;;;6.13;2.67;;;22.50;99.90;;;;;;4929232;29;20043;-85
2022/05/22 10:07:03;;;;;;;6.72;2.58;;;22.40;99.90;;;;;;4935295;29;20056;-86
2022/05/22 10:09:56;;;;;;;7.53;2.05;;;22.60;99.90;;;;;;4929045;29;20046;-82
2022/05/22 10:12:49;;;;;;;5.20;2.03;;;22.80;99.90;;;;;;4928052;29;20043;-84
2022/05/22 10:15:41;;;;;;;5.68;1.80;;;22.90;99.90;;;;;;4943878;28;20944;-84
2022/05/22 10:18:37;;;;;;;3.50;1.55;;;23.10;99.70;;;;;;4944932;28;20482;-86
2022/05/22 10:21:24;;;;;;;4.28;1.40;;;23.30;98.60;;;;;;4928353;29;20046;-85
2022/05/22 10:24:14;;;;;;;4.05;1.35;;;23.50;97.50;;;;;;4925145;29;20043;-83
2022/05/22 10:26:48;;;;;;;3.85;1.23;;;23.70;95.50;;;;;;4930115;29;20044;-82
2022/05/22 10:29:32;;;;;;;4.28;1.25;;;23.80;97.50;;;;;;4928594;29;20051;-83
2022/05/22 10:32:09;;;;;;;3.83;1.13;;;23.90;95.20;;;;;;4945771;28;20059;-82
2022/05/22 10:34:56;;;;;;;3.47;1.25;;;23.90;95.70;;;;;;4942595;28;20056;-83
2022/05/22 10:37:25;;;;;;;5.88;1.30;;;24.10;94.50;;;;;;4928462;29;20044;-82
2022/05/22 10:39:50;;;;;;;5.15;1.50;;;24.30;94.80;;;;;;4945403;28;20047;-83
2022/05/22 10:45:13;;;;;;;5.03;1.40;;;24.50;91.30;;;;;;4923941;29;20501;-86
2022/05/22 10:47:39;;;;;;;3.92;1.23;;;24.80;91.70;;;;;;4927832;29;20052;-84
2022/05/22 10:50:26;;;;;;;3.75;1.40;;;25.00;92.10;;;;;;4946170;28;20062;-83
2022/05/22 10:52:53;;;;;;;7.57;1.65;;;25.20;90.50;;;;;;4943989;28;20204;-86
2022/05/22 10:55:31;;;;;;;3.78;1.27;;;25.10;91.00;;;;;;4927694;29;20515;-86
2022/05/22 10:58:04;;;;;;;3.33;1.30;;;25.20;90.00;;;;;;4928236;29;20158;-86
2022/05/22 11:00:31;;;;;;;4.30;1.50;;;25.10;90.10;;;;;;4928268;29;20062;-88
2022/05/22 11:03:12;;;;;;;5.13;1.48;;;24.70;90.90;;;;;;4937918;29;20051;-87
2022/05/22 11:05:39;;;;;;;5.47;1.63;;;24.40;89.60;;;;;;4927177;29;20051;-86
2022/05/22 11:08:05;;;;;;;4.80;1.40;;;24.40;92.80;;;;;;4944475;29;20048;-89
2022/05/22 11:10:40;;;;;;;3.45;1.17;;;24.30;92.80;;;;;;4930209;29;20086;-86
2022/05/22 11:13:11;;;;;;;3.28;1.10;;;24.20;90.80;;;;;;4947336;29;20048;-88
2022/05/22 11:15:42;;;;;;;4.18;1.27;;;24.40;92.80;;;;;;4924924;29;20052;-85
2022/05/22 11:18:11;;;;;;;4.72;1.40;;;24.20;85.50;;;;;;4958264;28;20048;-88
2022/05/22 11:20:53;;;;;;;3.92;1.10;;;24.00;91.40;;;;;;4945895;29;20111;-87
2022/05/22 11:23:47;;;;;;;3.35;1.10;;;24.30;91.20;;;;;;4938670;28;20036;-88
2022/05/22 11:26:34;;;;;;;3.75;1.10;;;24.40;88.60;;;;;;4928166;29;20393;-89
2022/05/22 11:29:06;;;;;;;4.55;1.00;;;24.30;86.80;;;;;;4947553;28;20052;-88
2022/05/22 11:32:10;;;;;;;3.35;1.05;;;24.20;85.20;;;;;;4931823;29;20056;-86
2022/05/22 11:34:47;;;;;;;3.33;0.95;;;24.00;80.90;;;;;;4931875;29;20522;-83
2022/05/22 11:37:23;;;;;;;2.83;0.90;;;24.00;87.60;;;;;;4929232;29;20044;-84
2022/05/22 11:39:57;;;;;;;2.78;0.90;;;24.10;83.90;;;;;;4913391;29;20048;-84
2022/05/22 11:42:38;;;;;;;3.08;1.00;;;24.10;81.20;;;;;;4949082;28;20044;-91
2022/05/22 11:45:22;;;;;;;2.53;1.10;;;24.10;81.50;;;;;;4935239;29;20048;-85
2022/05/22 11:47:54;;;;;;;6.45;1.15;;;24.20;82.20;;;;;;4932479;29;20521;-86
2022/05/22 11:50:38;;;;;;;2.80;0.85;;;24.30;81.50;;;;;;4933445;29;20103;-86
2022/05/22 11:53:35;;;;;;;4.03;0.95;;;24.20;78.70;;;;;;4928349;29;20055;-88
2022/05/22 11:56:25;;;;;;;3.58;1.00;;;24.20;77.00;;;;;;4932314;29;20055;-84
2022/05/22 11:59:23;;;;;;;3.85;0.98;;;24.10;80.10;;;;;;4935099;29;20118;-86
2022/05/22 12:02:02;;;;;;;2.90;0.93;;;24.20;79.20;;;;;;4947850;29;20047;-85
2022/05/22 12:04:49;;;;;;;2.95;1.10;;;24.30;81.00;;;;;;4933373;29;20053;-85
2022/05/22 12:07:33;;;;;;;2.50;0.80;;;24.50;79.70;;;;;;4948404;29;20111;-85
2022/05/22 12:10:09;;;;;;;2.80;1.00;;;24.60;78.00;;;;;;4932064;29;20075;-84
2022/05/22 12:13:09;;;;;;;2.25;0.70;;;24.60;76.80;;;;;;4933637;29;20055;-85
2022/05/22 12:16:03;;;;;;;6.28;1.20;;;24.60;74.30;;;;;;4914669;29;20167;-84
2022/05/22 12:19:02;;;;;;;2.67;0.95;;;24.40;74.80;;;;;;4932037;29;20048;-83
2022/05/22 12:21:46;;;;;;;3.97;1.20;;;24.20;75.50;;;;;;4933492;29;20062;-85
2022/05/22 12:24:37;;;;;;;2.53;0.93;;;24.20;72.60;;;;;;4916998;29;20059;-84
2022/05/22 12:27:13;;;;;;;4.07;1.35;;;24.20;74.10;;;;;;4927461;29;20055;-84
2022/05/22 12:29:58;;;;;;;3.13;1.10;;;24.20;76.00;;;;;;4948215;29;20051;-85
2022/05/22 12:32:26;;;;;;;2.07;0.80;;;24.30;74.20;;;;;;4949458;29;20048;-84
2022/05/22 12:34:55;;;;;;;3.40;1.10;;;24.40;74.40;;;;;;4916482;29;20316;-85
2022/05/22 12:37:35;;;;;;;2.30;0.82;;;24.40;71.40;;;;;;4947010;29;20058;-84
2022/05/22 12:40:16;;;;;;;2.90;0.90;;;24.40;71.70;;;;;;4939556;28;20191;-85
2022/05/22 12:42:49;;;;;;;2.65;0.85;;;24.50;72.80;;;;;;4917234;29;20172;-82
2022/05/22 12:45:15;;;;;;;3.40;1.05;;;24.70;71.40;;;;;;4933064;29;20079;-84
2022/05/22 12:47:44;;;;;;;2.65;0.98;;;24.90;70.20;;;;;;4900759;29;20086;-83
2022/05/22 12:50:11;;;;;;;3.15;1.10;;;25.10;69.10;;;;;;4947001;29;20063;-83
2022/05/22 12:52:40;;;;;;;3.55;1.00;;;25.10;68.80;;;;;;4925157;29;20513;-84
2022/05/22 12:55:33;;;;;;;4.93;1.00;;;25.30;70.00;;;;;;4947455;29;20505;-85
2022/05/22 12:58:02;;;;;;;4.35;0.95;;;25.50;67.50;;;;;;4945755;29;20055;-84
2022/05/22 13:00:33;;;;;;;3.08;1.10;;;25.60;67.00;;;;;;4949040;28;20044;-85
2022/05/22 13:03:14;;;;;;;3.10;1.13;;;25.90;66.40;;;;;;4947346;29;20055;-85
2022/05/22 13:05:41;;;;;;;3.10;1.08;;;26.10;63.30;;;;;;4924200;29;20398;-85
2022/05/22 13:08:26;;;;;;;4.13;1.27;;;26.10;64.00;;;;;;4931884;29;20051;-85
2022/05/22 13:11:18;;;;;;;4.05;1.38;;;26.30;64.10;;;;;;4931077;29;20060;-85
2022/05/22 13:13:48;;;;;;;2.83;1.00;;;26.30;63.50;;;;;;4931986;29;20047;-85
2022/05/22 13:16:27;;;;;;;3.58;1.23;;;26.50;63.50;;;;;;4931555;29;20122;-86
2022/05/22 13:18:55;;;;;;;3.00;1.05;;;26.40;60.70;;;;;;4946653;29;20055;-86
2022/05/22 13:21:35;;;;;;;6.90;1.58;;;26.40;62.10;;;;;;4937899;29;20190;-85
2022/05/22 13:24:20;;;;;;;3.55;1.00;;;26.40;61.80;;;;;;4947180;29;20062;-85